Time;durP1;ratioP1;P1;durP2;ratioP2;P2;SDS_P1;SDS_P2;PMS_P1;PMS_P2;Temp;Humidity;BMP_temperature;BMP_pressure;BME280_temperature;BME280_humidity;BME280_pressure;Samples;Min_cycle;Max_cycle;Signal;HPM_P1;HPM_P2
2021/07/20 00:02:17;;;;;;;1.37;1.20;;;;;;;15.37;58.59;100784.88;5088819;28;20199;-67
2021/07/20 00:04:45;;;;;;;1.80;1.10;;;;;;;15.32;58.97;100779.00;5089243;28;20249;-67
2021/07/20 00:07:13;;;;;;;1.80;1.07;;;;;;;15.24;58.99;100784.22;5089243;28;20279;-67
2021/07/20 00:09:42;;;;;;;1.40;0.90;;;;;;;15.21;58.97;100779.91;5089548;28;20208;-67
2021/07/20 00:12:11;;;;;;;2.23;1.33;;;;;;;15.23;58.84;100786.06;5075924;28;20439;-67
2021/07/20 00:14:41;;;;;;;0.90;0.90;;;;;;;15.20;59.03;100788.16;5082643;28;20205;-67
2021/07/20 00:17:09;;;;;;;1.27;1.07;;;;;;;15.15;59.29;100783.16;5080724;28;20211;-67
2021/07/20 00:19:38;;;;;;;2.83;1.00;;;;;;;15.15;59.30;100785.00;5088673;28;20193;-67
2021/07/20 00:22:06;;;;;;;0.97;0.93;;;;;;;14.86;58.75;100736.97;5090535;28;20239;-67
2021/07/20 00:24:35;;;;;;;1.30;1.00;;;;;;;15.11;58.92;100779.00;5092328;28;20196;-67
2021/07/20 00:27:04;;;;;;;1.67;1.20;;;;;;;15.10;58.53;100771.88;5093288;28;20714;-67
2021/07/20 00:29:32;;;;;;;1.20;1.10;;;;;;;15.12;59.15;100774.47;5092578;28;20207;-67
2021/07/20 00:32:04;;;;;;;1.17;1.07;;;;;;;15.07;59.21;100777.56;5092174;28;20655;-67
2021/07/20 00:34:32;;;;;;;1.13;1.00;;;;;;;15.02;59.14;100768.13;5092448;28;20220;-67
2021/07/20 00:37:00;;;;;;;1.43;1.10;;;;;;;15.01;58.90;100780.81;5091703;28;20207;-67
2021/07/20 00:39:29;;;;;;;2.00;1.27;;;;;;;14.98;58.88;100775.63;5091232;28;20256;-67
2021/07/20 00:41:58;;;;;;;1.37;0.97;;;;;;;14.96;59.24;100771.34;5079153;28;20587;-67
2021/07/20 00:44:26;;;;;;;1.27;1.03;;;;;;;14.93;58.75;100767.06;5091534;28;20555;-67
2021/07/20 00:46:55;;;;;;;1.43;1.20;;;;;;;14.90;59.41;100764.63;5092152;28;20610;-66
2021/07/20 00:49:25;;;;;;;1.07;0.97;;;;;;;14.87;58.89;100759.47;5093407;28;20664;-69
2021/07/20 00:51:53;;;;;;;1.80;1.10;;;;;;;14.83;59.25;100760.72;5090211;28;20227;-67
2021/07/20 00:54:22;;;;;;;2.13;1.20;;;;;;;14.76;59.74;100755.00;5093005;28;20239;-67
2021/07/20 00:56:55;;;;;;;1.80;1.27;;;;;;;14.74;59.33;100756.13;5090501;28;20694;-67
2021/07/20 00:59:23;;;;;;;1.17;1.07;;;;;;;14.66;59.79;100748.63;5091288;28;20293;-68
2021/07/20 01:01:52;;;;;;;0.97;0.93;;;;;;;14.68;59.71;100756.59;5091950;28;20200;-67
2021/07/20 01:04:20;;;;;;;0.93;0.93;;;;;;;14.55;59.68;100722.53;5090753;28;20196;-73
2021/07/20 01:06:52;;;;;;;1.00;1.00;;;;;;;14.26;59.49;100676.31;5090857;28;20295;-72
2021/07/20 01:09:22;;;;;;;1.73;1.07;;;;;;;14.60;59.33;100739.19;5076618;28;20196;-72
2021/07/20 01:11:53;;;;;;;0.90;0.90;;;;;;;14.57;59.28;100739.47;5082398;28;20243;-71
2021/07/20 01:14:23;;;;;;;1.10;1.00;;;;;;;14.48;60.33;100742.94;5072732;28;20228;-72
2021/07/20 01:16:52;;;;;;;2.70;1.10;;;;;;;14.48;60.08;100740.25;5082969;28;20642;-71
2021/07/20 01:19:21;;;;;;;3.33;1.50;;;;;;;14.43;59.80;100733.53;5087187;28;20208;-71
2021/07/20 01:21:53;;;;;;;1.00;1.00;;;;;;;14.45;59.60;100732.41;5079119;28;20282;-67
2021/07/20 01:24:23;;;;;;;1.40;1.23;;;;;;;14.38;60.29;100725.75;5090794;28;20786;-72
2021/07/20 01:26:54;;;;;;;1.40;1.03;;;;;;;14.34;60.44;100731.53;5071455;28;20263;-70
2021/07/20 01:29:24;;;;;;;1.73;1.00;;;;;;;14.17;60.61;100705.94;5085911;28;20654;-71
2021/07/20 01:31:54;;;;;;;0.90;0.90;;;;;;;14.23;60.86;100725.19;5088723;28;20257;-71
2021/07/20 01:34:23;;;;;;;1.20;1.00;;;;;;;14.23;60.11;100721.63;5079369;28;20244;-71
2021/07/20 01:36:53;;;;;;;6.30;1.20;;;;;;;14.20;60.54;100720.06;5081144;28;20271;-71
2021/07/20 01:39:24;;;;;;;1.27;1.10;;;;;;;14.20;60.51;100724.59;5090264;28;20203;-67
2021/07/20 01:41:54;;;;;;;1.00;1.00;;;;;;;13.79;60.60;100650.59;5091990;28;20199;-66
2021/07/20 01:44:25;;;;;;;1.90;1.20;;;;;;;14.07;61.07;100694.19;5075328;28;20208;-71
2021/07/20 01:46:56;;;;;;;3.60;1.17;;;;;;;14.05;61.46;100705.09;5090345;28;20238;-71
2021/07/20 01:49:28;;;;;;;1.23;1.10;;;;;;;14.09;61.00;100706.59;5077315;28;20283;-70
2021/07/20 01:52:01;;;;;;;0.90;0.90;;;;;;;14.03;61.05;100704.38;5081914;28;20750;-67
2021/07/20 01:54:34;;;;;;;1.47;1.20;;;;;;;14.05;61.81;100701.56;5085359;28;20217;-67
2021/07/20 01:57:04;;;;;;;1.77;0.90;;;;;;;13.95;62.01;100693.38;5091375;28;20207;-67
2021/07/20 02:00:16;;;;;;;0.87;0.87;;;;;;;13.87;62.61;100699.41;5043197;28;20208;-66
2021/07/20 02:03:16;;;;;;;1.10;1.00;;;;;;;13.82;63.16;100700.78;5031398;28;20308;-66
2021/07/20 02:08:47;;;;;;;1.30;1.20;;;;;;;13.90;62.07;100693.75;5089059;28;20298;-67
2021/07/20 02:11:25;;;;;;;2.17;1.07;;;;;;;13.85;62.18;100695.97;5090058;28;20235;-70
2021/07/20 02:14:04;;;;;;;2.17;0.93;;;;;;;13.86;62.07;100696.84;5077385;28;20276;-71
2021/07/20 02:16:52;;;;;;;1.33;1.23;;;;;;;13.83;62.05;100689.00;5088207;28;20285;-67
2021/07/20 02:19:26;;;;;;;3.93;1.20;;;;;;;13.82;62.38;100682.72;5080544;28;20187;-66
2021/07/20 02:22:03;;;;;;;4.40;1.10;;;;;;;13.85;62.43;100681.63;5089461;28;20737;-67
2021/07/20 02:24:36;;;;;;;0.90;0.90;;;;;;;13.92;62.12;100690.91;5090978;28;20199;-67
2021/07/20 02:27:08;;;;;;;1.20;1.10;;;;;;;14.02;61.53;100691.88;5090317;28;20611;-71
2021/07/20 02:29:52;;;;;;;1.40;1.30;;;;;;;13.78;61.93;100642.63;5089414;28;20215;-71
2021/07/20 02:32:23;;;;;;;1.27;1.00;;;;;;;14.09;61.81;100684.13;5089049;28;20284;-71
2021/07/20 02:34:55;;;;;;;1.30;1.20;;;;;;;14.13;62.19;100682.88;5079049;28;20226;-71
2021/07/20 02:37:25;;;;;;;2.40;1.20;;;;;;;13.99;61.79;100654.31;5085729;28;20204;-68
2021/07/20 02:39:54;;;;;;;0.97;0.97;;;;;;;14.22;61.46;100682.09;5079808;28;20207;-67
2021/07/20 02:42:26;;;;;;;2.90;1.00;;;;;;;14.21;62.74;100672.28;5084143;28;20191;-66
2021/07/20 02:45:00;;;;;;;1.17;1.10;;;;;;;14.23;61.11;100664.91;5079021;28;20713;-67
2021/07/20 02:47:29;;;;;;;1.20;1.07;;;;;;;14.29;62.03;100676.06;5085465;28;20614;-66
2021/07/20 02:49:59;;;;;;;2.30;1.20;;;;;;;14.31;61.57;100665.13;5077194;28;20197;-66
2021/07/20 02:52:30;;;;;;;0.90;0.90;;;;;;;14.32;62.29;100663.28;5087407;28;20211;-67
2021/07/20 02:55:01;;;;;;;1.00;1.00;;;;;;;14.46;62.53;100669.28;5085217;28;20226;-67
2021/07/20 02:57:33;;;;;;;0.90;0.90;;;;;;;14.74;62.08;100666.91;5067867;28;20726;-67
2021/07/20 03:00:02;;;;;;;1.10;1.00;;;;;;;15.00;62.59;100662.78;5082761;28;20299;-67
2021/07/20 03:02:51;;;;;;;1.00;0.90;;;;;;;15.08;62.36;100654.84;5082078;28;20512;-67
2021/07/20 03:05:21;;;;;;;1.00;1.00;;;;;;;15.27;61.13;100658.63;5089849;28;20655;-72
2021/07/20 03:07:56;;;;;;;0.93;0.70;;;;;;;15.29;61.37;100662.03;5088561;28;20305;-71
2021/07/20 03:10:30;;;;;;;0.97;0.90;;;;;;;15.31;62.41;100654.66;5088667;28;20625;-71
2021/07/20 03:13:05;;;;;;;0.90;0.90;;;;;;;15.59;62.19;100661.19;5071049;28;20197;-71
2021/07/20 03:15:43;;;;;;;1.17;1.07;;;;;;;15.78;62.25;100664.81;5080625;28;20231;-71
2021/07/20 03:18:15;;;;;;;0.83;0.83;;;;;;;15.59;62.47;100605.19;5084533;28;20231;-72
2021/07/20 03:20:45;;;;;;;2.57;1.20;;;;;;;16.10;61.91;100663.72;5090522;28;20749;-72
2021/07/20 03:23:14;;;;;;;1.00;1.00;;;;;;;16.22;61.92;100662.56;5086593;28;20193;-72
2021/07/20 03:25:46;;;;;;;1.10;1.00;;;;;;;16.45;61.51;100669.41;5088542;28;20574;-71
2021/07/20 03:28:18;;;;;;;1.73;1.00;;;;;;;16.55;61.84;100658.59;5088020;28;20205;-72
2021/07/20 03:30:48;;;;;;;1.10;1.10;;;;;;;16.60;61.77;100661.72;5079918;28;20262;-67
2021/07/20 03:33:21;;;;;;;1.23;1.13;;;;;;;16.66;62.07;100655.72;5080118;28;20210;-68
2021/07/20 03:35:58;;;;;;;1.07;0.90;;;;;;;16.53;61.94;100610.88;5078304;28;20315;-67
2021/07/20 03:38:30;;;;;;;2.67;1.23;;;;;;;16.88;61.85;100638.28;5076116;28;20211;-67
2021/07/20 03:41:03;;;;;;;1.30;1.20;;;;;;;17.06;61.62;100647.34;5086379;28;20584;-67
2021/07/20 03:43:34;;;;;;;1.17;1.07;;;;;;;17.21;61.13;100646.88;5087557;28;20211;-68
2021/07/20 03:46:04;;;;;;;1.17;1.07;;;;;;;17.28;61.06;100637.97;5086153;28;20193;-67
2021/07/20 03:48:34;;;;;;;1.30;1.20;;;;;;;17.23;62.20;100631.28;5079778;28;20912;-71
2021/07/20 03:51:11;;;;;;;1.30;1.20;;;;;;;17.29;61.38;100641.53;5081690;28;20204;-72
2021/07/20 03:53:41;;;;;;;1.03;1.03;;;;;;;17.29;61.24;100641.53;5076975;28;20211;-67
2021/07/20 03:56:11;;;;;;;1.10;0.90;;;;;;;17.35;60.82;100640.94;5088658;28;20219;-67
2021/07/20 03:58:53;;;;;;;3.50;1.20;;;;;;;17.33;60.55;100637.53;5083180;28;20645;-67
2021/07/20 04:01:28;;;;;;;1.30;1.20;;;;;;;17.35;60.83;100640.94;5087511;28;20226;-67
2021/07/20 04:03:59;;;;;;;1.60;1.13;;;;;;;17.31;60.70;100637.66;5086631;28;20600;-67
2021/07/20 04:06:47;;;;;;;1.40;1.23;;;;;;;17.37;60.35;100644.34;5081863;28;20222;-69
2021/07/20 04:09:33;;;;;;;1.00;1.00;;;;;;;17.39;60.17;100640.47;5068880;28;20647;-68
2021/07/20 04:12:24;;;;;;;1.33;0.90;;;;;;;17.50;59.89;100636.72;5061193;28;20303;-72
2021/07/20 04:15:14;;;;;;;1.20;1.10;;;;;;;17.52;60.58;100639.28;5080969;28;20579;-67
2021/07/20 04:17:55;;;;;;;1.10;1.00;;;;;;;17.63;59.35;100622.78;5081547;28;20193;-68
2021/07/20 04:20:24;;;;;;;1.67;1.30;;;;;;;17.67;59.95;100625.06;5068417;28;20229;-67
2021/07/20 04:22:53;;;;;;;0.80;0.80;;;;;;;17.75;60.34;100626.16;5084161;28;20205;-72
2021/07/20 04:25:23;;;;;;;0.90;0.90;;;;;;;17.89;59.55;100623.78;5079622;28;20279;-67
2021/07/20 04:27:59;;;;;;;0.83;0.83;;;;;;;17.98;58.44;100627.44;5085870;28;20199;-68
2021/07/20 04:30:30;;;;;;;0.97;0.87;;;;;;;17.99;59.44;100623.69;5087925;28;20208;-72
2021/07/20 04:33:00;;;;;;;3.23;0.90;;;;;;;18.06;58.46;100624.81;5088306;28;20304;-72
2021/07/20 04:35:44;;;;;;;0.70;0.70;;;;;;;18.23;57.65;100621.22;5087722;28;20323;-68
2021/07/20 04:38:16;;;;;;;0.83;0.83;;;;;;;18.31;59.02;100621.28;5088710;28;20310;-67
2021/07/20 04:40:44;;;;;;;0.90;0.90;;;;;;;18.35;58.97;100604.66;5086092;28;20566;-72
2021/07/20 04:43:13;;;;;;;0.70;0.70;;;;;;;18.56;58.07;100616.91;5084816;28;20254;-67
2021/07/20 04:45:46;;;;;;;1.13;0.90;;;;;;;18.57;57.86;100607.72;5087060;28;20228;-68
2021/07/20 04:48:16;;;;;;;1.10;1.00;;;;;;;18.72;58.35;100623.53;5088680;28;20193;-67
2021/07/20 04:50:56;;;;;;;1.67;1.00;;;;;;;18.76;58.20;100617.59;5088387;28;20594;-67
2021/07/20 04:53:26;;;;;;;1.07;0.93;;;;;;;18.75;57.17;100615.03;5079636;28;20538;-68
2021/07/20 04:55:55;;;;;;;1.33;1.20;;;;;;;18.84;56.32;100616.78;5088561;28;20223;-68
2021/07/20 04:58:26;;;;;;;1.37;1.20;;;;;;;18.73;57.85;100617.91;5087189;28;20560;-68
2021/07/20 05:00:56;;;;;;;1.00;1.00;;;;;;;18.74;57.84;100614.19;5079400;28;20224;-67
2021/07/20 05:03:29;;;;;;;0.90;0.90;;;;;;;18.82;58.03;100610.66;5087268;28;20284;-68
2021/07/20 05:05:58;;;;;;;2.27;1.00;;;;;;;18.86;57.12;100598.44;5072912;28;20258;-68
2021/07/20 05:08:35;;;;;;;2.07;1.10;;;;;;;19.07;57.64;100608.94;5089284;28;20230;-67
2021/07/20 05:11:05;;;;;;;1.63;1.00;;;;;;;19.19;57.15;100613.91;5091693;28;20192;-67
2021/07/20 05:13:36;;;;;;;3.80;1.13;;;;;;;19.26;56.92;100611.38;5092510;28;20199;-68
2021/07/20 05:16:07;;;;;;;2.20;0.90;;;;;;;19.28;56.85;100576.69;5086229;28;20225;-67
2021/07/20 05:18:44;;;;;;;0.90;0.90;;;;;;;19.55;57.43;100608.31;5083291;28;20192;-67
2021/07/20 05:21:38;;;;;;;1.00;1.00;;;;;;;19.82;55.67;100605.31;5074084;28;20320;-67
2021/07/20 05:24:08;;;;;;;0.70;0.70;;;;;;;20.07;55.67;100603.47;5086058;28;20649;-67
2021/07/20 05:27:03;;;;;;;0.80;0.80;;;;;;;20.22;54.84;100611.00;5090397;28;20533;-68
2021/07/20 05:29:35;;;;;;;0.90;0.90;;;;;;;20.41;54.66;100597.03;5090261;28;20323;-68
2021/07/20 05:32:23;;;;;;;0.70;0.70;;;;;;;20.43;53.46;100543.16;5091943;28;20249;-67
2021/07/20 05:34:54;;;;;;;4.33;1.10;;;;;;;20.78;53.65;100591.88;5080110;28;20254;-67
2021/07/20 05:37:24;;;;;;;0.90;0.90;;;;;;;20.75;53.13;100554.00;5086270;28;20569;-67
2021/07/20 05:39:56;;;;;;;2.83;1.00;;;;;;;21.15;52.94;100595.91;5090100;28;20734;-67
2021/07/20 05:42:35;;;;;;;2.03;0.90;;;;;;;21.46;51.94;100582.31;5085973;28;20604;-72
2021/07/20 05:45:07;;;;;;;1.43;0.87;;;;;;;21.36;51.78;100538.78;5081182;28;20569;-67
2021/07/20 05:47:41;;;;;;;0.93;0.90;;;;;;;21.88;52.21;100594.69;5091015;28;20727;-68
2021/07/20 05:50:11;;;;;;;1.37;1.10;;;;;;;22.14;51.49;100597.13;5090352;28;20216;-67
2021/07/20 05:53:01;;;;;;;2.57;1.00;;;;;;;22.37;49.92;100583.44;5076844;28;20215;-67
2021/07/20 05:55:36;;;;;;;0.90;0.90;;;;;;;22.30;50.86;100583.28;5091414;28;20236;-67
2021/07/20 05:58:06;;;;;;;0.80;0.80;;;;;;;22.69;49.38;100576.78;5089551;28;20197;-67
2021/07/20 06:00:35;;;;;;;1.00;1.00;;;;;;;22.93;48.82;100580.13;5091162;28;20200;-70
2021/07/20 06:03:15;;;;;;;2.30;0.83;;;;;;;22.82;48.57;100582.50;5089931;28;20188;-71
2021/07/20 06:05:45;;;;;;;1.07;0.80;;;;;;;23.11;48.90;100581.66;5075469;28;20200;-71
2021/07/20 06:08:16;;;;;;;2.33;0.90;;;;;;;23.32;48.01;100556.22;5091117;28;20224;-71
2021/07/20 06:10:47;;;;;;;0.73;0.73;;;;;;;23.92;46.38;100585.22;5090261;28;20283;-71
2021/07/20 06:13:17;;;;;;;1.00;1.00;;;;;;;23.70;46.77;100576.97;5091001;28;20205;-71
2021/07/20 06:15:48;;;;;;;0.70;0.70;;;;;;;23.67;47.14;100571.88;5090987;28;20236;-66
2021/07/20 06:18:18;;;;;;;0.70;0.70;;;;;;;23.96;46.47;100576.41;5090868;28;20603;-67
2021/07/20 06:20:51;;;;;;;0.70;0.70;;;;;;;24.39;46.05;100571.78;5089542;28;20232;-66
2021/07/20 06:23:21;;;;;;;0.73;0.73;;;;;;;24.65;45.75;100573.03;5078127;28;20208;-68
2021/07/20 06:25:51;;;;;;;1.20;1.10;;;;;;;25.10;44.51;100568.91;5074854;28;20205;-67
2021/07/20 06:28:22;;;;;;;1.00;1.00;;;;;;;25.31;44.61;100556.97;5089714;28;20716;-66
2021/07/20 06:30:51;;;;;;;0.80;0.80;;;;;;;25.53;43.28;100553.06;5090932;28;20208;-66
2021/07/20 06:33:22;;;;;;;0.93;0.93;;;;;;;25.88;43.55;100555.72;5089397;28;20280;-67
2021/07/20 06:35:51;;;;;;;1.10;0.70;;;;;;;25.89;44.07;100551.91;5075851;28;20615;-67
2021/07/20 06:38:21;;;;;;;0.70;0.68;;;;;;;26.36;41.96;100552.84;5090397;28;20203;-66
2021/07/20 06:40:51;;;;;;;3.25;0.90;;;;;;;26.38;41.74;100545.22;5090387;28;20545;-67
2021/07/20 06:43:20;;;;;;;0.90;0.88;;;;;;;26.22;41.87;100549.19;5090542;28;20275;-66
2021/07/20 06:45:50;;;;;;;0.95;0.95;;;;;;;26.41;41.70;100545.66;5089598;28;20591;-66
2021/07/20 06:48:22;;;;;;;1.08;0.93;;;;;;;26.60;41.31;100547.53;5081678;28;20197;-67
2021/07/20 06:50:54;;;;;;;1.65;0.90;;;;;;;26.61;40.55;100542.84;5087239;28;20201;-66
2021/07/20 06:53:22;;;;;;;0.90;0.90;;;;;;;26.63;41.13;100546.25;5090370;28;20257;-66
2021/07/20 06:55:53;;;;;;;0.82;0.80;;;;;;;26.86;40.71;100534.75;5089993;28;20266;-67
2021/07/20 06:58:24;;;;;;;0.88;0.88;;;;;;;26.62;40.99;100492.19;5082822;28;20220;-67
2021/07/20 07:00:55;;;;;;;2.47;1.17;;;;;;;27.32;40.82;100542.94;5083469;28;20611;-67
2021/07/20 07:03:31;;;;;;;0.90;0.90;;;;;;;27.54;39.39;100547.06;5077162;28;20192;-67
2021/07/20 07:06:02;;;;;;;0.80;0.80;;;;;;;27.45;39.31;100536.50;5075374;28;20578;-68
2021/07/20 07:08:32;;;;;;;0.80;0.80;;;;;;;27.41;39.06;100544.38;5089881;28;20201;-67
2021/07/20 07:11:02;;;;;;;1.77;1.00;;;;;;;27.40;39.73;100539.94;5075392;28;20279;-68
2021/07/20 07:13:30;;;;;;;2.20;0.85;;;;;;;27.67;39.42;100546.19;5089827;28;20204;-72
2021/07/20 07:16:00;;;;;;;0.90;0.90;;;;;;;27.92;39.18;100543.50;5088963;28;20196;-71
2021/07/20 07:18:31;;;;;;;0.88;0.88;;;;;;;28.01;38.67;100533.03;5089631;28;20628;-67
2021/07/20 07:21:01;;;;;;;0.93;0.93;;;;;;;28.17;39.17;100539.94;5089382;28;20664;-67
2021/07/20 07:23:31;;;;;;;1.00;0.90;;;;;;;28.64;38.65;100531.03;5089904;28;20208;-67
2021/07/20 07:26:02;;;;;;;1.58;1.00;;;;;;;28.20;38.75;100537.56;5087751;28;20239;-67
2021/07/20 07:28:33;;;;;;;1.00;0.98;;;;;;;28.23;38.44;100539.88;5077966;28;20285;-68
2021/07/20 07:31:02;;;;;;;0.80;0.80;;;;;;;28.22;38.99;100537.34;5088729;28;20283;-68
2021/07/20 07:33:32;;;;;;;1.45;1.05;;;;;;;28.35;38.42;100535.34;5089512;28;20245;-72
2021/07/20 07:36:01;;;;;;;0.85;0.85;;;;;;;28.55;39.21;100532.41;5073659;28;20691;-72
2021/07/20 07:38:31;;;;;;;1.60;1.08;;;;;;;29.06;38.27;100526.56;5077122;28;20539;-71
2021/07/20 07:41:00;;;;;;;1.10;1.00;;;;;;;28.93;37.75;100529.50;5088224;28;20291;-71
2021/07/20 07:43:30;;;;;;;0.85;0.80;;;;;;;29.25;37.35;100530.19;5089323;28;20260;-67
2021/07/20 07:46:04;;;;;;;6.32;0.95;;;;;;;29.27;37.53;100539.09;5074906;28;20195;-67
2021/07/20 07:48:37;;;;;;;1.73;1.10;;;;;;;28.78;37.00;100531.75;5089256;28;20224;-67
2021/07/20 07:51:07;;;;;;;1.42;1.27;;;;;;;28.83;37.93;100534.69;5088869;28;20208;-67
2021/07/20 07:53:36;;;;;;;3.55;1.25;;;;;;;28.65;37.08;100537.41;5089226;28;20218;-67
2021/07/20 07:56:06;;;;;;;1.17;1.08;;;;;;;28.68;37.33;100540.56;5085894;28;20297;-67
2021/07/20 07:58:34;;;;;;;1.30;1.00;;;;;;;28.82;37.15;100540.44;5078817;28;20631;-71
2021/07/20 08:01:05;;;;;;;1.30;1.20;;;;;;;29.07;37.42;100541.22;5088411;28;20276;-67
2021/07/20 08:03:39;;;;;;;1.38;1.20;;;;;;;29.01;37.18;100547.69;5080958;28;20208;-67
2021/07/20 08:06:09;;;;;;;2.97;1.10;;;;;;;29.12;36.80;100549.72;5090579;28;20196;-67
2021/07/20 08:08:40;;;;;;;1.50;1.02;;;;;;;28.75;37.07;100549.63;5089046;28;20563;-66
2021/07/20 08:11:13;;;;;;;4.40;1.30;;;;;;;28.38;38.03;100553.38;5083114;28;20627;-66
2021/07/20 08:13:43;;;;;;;1.40;1.15;;;;;;;28.33;38.23;100555.97;5081103;28;20220;-71
2021/07/20 08:16:13;;;;;;;1.20;1.10;;;;;;;28.53;38.00;100562.19;5088655;28;20696;-67
2021/07/20 08:18:44;;;;;;;1.48;1.38;;;;;;;28.75;37.88;100557.91;5075600;28;20232;-67
2021/07/20 08:21:14;;;;;;;2.40;1.40;;;;;;;28.40;38.78;100557.59;5072568;28;20228;-71
2021/07/20 08:23:45;;;;;;;1.27;1.17;;;;;;;28.54;38.60;100551.97;5088938;28;20204;-71
2021/07/20 08:26:18;;;;;;;2.70;1.30;;;;;;;28.60;37.90;100564.88;5088266;28;20694;-68
2021/07/20 08:28:54;;;;;;;4.35;1.27;;;;;;;29.15;37.87;100557.56;5088748;28;20200;-68
2021/07/20 08:31:24;;;;;;;1.30;1.17;;;;;;;29.52;37.12;100563.09;5088775;28;20328;-71
2021/07/20 08:33:58;;;;;;;1.92;1.20;;;;;;;29.53;36.42;100554.56;5086679;28;20203;-67
2021/07/20 08:36:29;;;;;;;2.83;1.20;;;;;;;29.77;35.75;100508.44;5077834;28;20208;-67
2021/07/20 08:38:58;;;;;;;2.63;1.15;;;;;;;30.04;35.42;100561.53;5088123;28;20249;-68
2021/07/20 08:41:41;;;;;;;2.80;1.15;;;;;;;29.61;34.88;100553.38;5088821;28;20193;-68
2021/07/20 08:44:26;;;;;;;2.25;1.17;;;;;;;29.80;34.61;100555.03;5092017;28;20200;-68
2021/07/20 08:47:04;;;;;;;1.98;1.30;;;;;;;29.58;35.07;100576.00;5092451;28;20566;-67
2021/07/20 08:50:00;;;;;;;2.00;1.13;;;;;;;29.86;34.58;100576.25;5087524;28;20662;-68
2021/07/20 08:52:36;;;;;;;1.63;1.30;;;;;;;30.16;35.18;100569.88;5087180;28;20204;-67
2021/07/20 08:55:10;;;;;;;1.50;1.40;;;;;;;30.02;34.25;100565.59;5092465;28;20223;-67
2021/07/20 08:57:47;;;;;;;1.80;1.40;;;;;;;30.45;34.48;100566.19;5091083;28;20219;-67
2021/07/20 09:00:18;;;;;;;1.42;1.33;;;;;;;30.37;34.88;100561.00;5081492;28;20192;-67
2021/07/20 09:02:52;;;;;;;3.22;1.30;;;;;;;30.62;34.61;100566.38;5088943;28;20209;-68
2021/07/20 09:05:28;;;;;;;1.30;1.20;;;;;;;30.77;34.76;100565.88;5079045;28;20575;-68
2021/07/20 09:08:00;;;;;;;3.17;1.30;;;;;;;30.83;34.55;100562.16;5079238;28;20193;-67
2021/07/20 09:10:42;;;;;;;3.78;1.25;;;;;;;31.00;34.78;100568.66;5078393;28;20332;-67
2021/07/20 09:13:13;;;;;;;2.47;1.42;;;;;;;31.36;34.74;100562.00;5080288;28;20192;-68
2021/07/20 09:15:48;;;;;;;1.35;1.25;;;;;;;31.31;34.33;100561.03;5091790;28;20212;-68
2021/07/20 09:18:24;;;;;;;7.60;1.40;;;;;;;31.17;34.57;100564.06;5092334;28;20313;-67
2021/07/20 09:21:00;;;;;;;2.83;1.50;;;;;;;30.88;34.33;100581.69;5091614;28;20235;-68
2021/07/20 09:23:33;;;;;;;3.65;1.73;;;;;;;30.53;34.66;100576.09;5092010;28;20241;-71
2021/07/20 09:26:07;;;;;;;4.75;1.50;;;;;;;30.12;35.41;100588.91;5091902;28;20193;-71
2021/07/20 09:28:40;;;;;;;4.90;2.00;;;;;;;29.77;36.24;100583.19;5091974;28;20193;-68
2021/07/20 09:31:18;;;;;;;1.70;1.40;;;;;;;29.61;36.76;100590.22;5091464;28;20212;-71
2021/07/20 09:33:55;;;;;;;1.95;1.58;;;;;;;29.90;36.79;100569.16;5090546;28;20207;-71
2021/07/20 09:36:32;;;;;;;1.58;1.45;;;;;;;30.25;36.01;100582.31;5080453;28;20599;-72
2021/07/20 09:39:30;;;;;;;2.92;1.67;;;;;;;30.63;35.74;100575.53;5077024;28;20217;-67
2021/07/20 09:42:07;;;;;;;4.07;1.70;;;;;;;30.29;35.25;100581.59;5083256;28;20682;-71
2021/07/20 09:44:43;;;;;;;1.85;1.50;;;;;;;30.28;36.39;100587.38;5092246;28;20676;-71
2021/07/20 09:47:24;;;;;;;3.00;1.70;;;;;;;30.60;35.33;100582.38;5091879;28;20227;-71
2021/07/20 09:50:08;;;;;;;3.35;2.05;;;;;;;30.29;35.68;100572.41;5078864;28;20279;-71
2021/07/20 09:53:05;;;;;;;1.75;1.50;;;;;;;30.62;35.65;100551.69;5088950;28;20209;-71
2021/07/20 09:55:46;;;;;;;2.42;1.70;;;;;;;30.89;35.27;100555.63;5083779;28;20200;-71
2021/07/20 09:58:22;;;;;;;3.53;1.67;;;;;;;31.09;34.90;100550.53;5077737;28;20221;-71
2021/07/20 10:01:02;;;;;;;2.92;1.80;;;;;;;30.87;35.14;100575.28;5091280;28;20755;-71
2021/07/20 10:03:45;;;;;;;4.13;1.75;;;;;;;31.00;35.39;100582.53;5079134;28;20261;-71
2021/07/20 10:06:18;;;;;;;4.75;1.80;;;;;;;30.64;35.91;100557.81;5077818;28;20204;-71
2021/07/20 10:08:55;;;;;;;4.93;1.90;;;;;;;30.59;35.77;100578.75;5091241;28;20220;-71
2021/07/20 10:11:30;;;;;;;4.43;1.75;;;;;;;30.06;36.14;100556.59;5091540;28;20551;-71
2021/07/20 10:14:17;;;;;;;7.25;1.95;;;;;;;30.19;36.51;100566.63;5091214;28;20321;-71
2021/07/20 10:16:53;;;;;;;4.32;1.60;;;;;;;30.46;35.57;100562.34;5090671;28;20207;-70
2021/07/20 10:19:32;;;;;;;3.78;2.03;;;;;;;30.51;35.37;100559.69;5090766;28;20656;-70
2021/07/20 10:22:04;;;;;;;2.92;1.80;;;;;;;29.95;36.22;100555.44;5090822;28;20294;-70
2021/07/20 10:24:39;;;;;;;2.40;1.60;;;;;;;30.06;36.25;100567.69;5076485;28;20270;-70
2021/07/20 10:27:14;;;;;;;2.45;1.58;;;;;;;30.05;36.51;100566.00;5078678;28;20243;-71
2021/07/20 10:29:51;;;;;;;2.35;1.70;;;;;;;30.41;36.11;100570.53;5088680;28;20563;-71
2021/07/20 10:32:24;;;;;;;3.42;1.80;;;;;;;30.59;35.99;100570.41;5086572;28;20236;-70
2021/07/20 10:34:58;;;;;;;6.60;2.30;;;;;;;30.26;35.96;100561.81;5079398;28;20209;-71
2021/07/20 10:37:30;;;;;;;2.97;1.80;;;;;;;30.02;36.20;100537.91;5087451;28;20273;-70
2021/07/20 10:40:06;;;;;;;4.03;1.92;;;;;;;30.07;36.06;100563.00;5090374;28;20360;-71
2021/07/20 10:42:40;;;;;;;2.30;1.77;;;;;;;30.40;35.60;100557.75;5089608;28;20200;-70
2021/07/20 10:45:12;;;;;;;2.80;1.80;;;;;;;30.30;36.14;100557.47;5091066;28;20208;-70
2021/07/20 10:47:46;;;;;;;1.90;1.60;;;;;;;30.31;36.50;100564.75;5089853;28;20661;-71
2021/07/20 10:50:23;;;;;;;7.88;2.03;;;;;;;30.56;36.59;100554.25;5080799;28;20217;-69
2021/07/20 10:53:11;;;;;;;3.28;1.80;;;;;;;30.12;36.97;100554.81;5076749;28;20215;-71
2021/07/20 10:55:53;;;;;;;7.10;2.10;;;;;;;30.41;36.27;100555.84;5076612;28;20661;-71
2021/07/20 10:58:32;;;;;;;6.53;2.10;;;;;;;30.28;36.26;100554.94;5075604;28;20675;-70
2021/07/20 11:01:08;;;;;;;2.88;2.10;;;;;;;30.43;36.64;100557.28;5076223;28;20571;-68
2021/07/20 11:03:44;;;;;;;4.78;2.05;;;;;;;30.35;36.14;100548.47;5078503;28;20228;-68
2021/07/20 11:06:17;;;;;;;2.90;2.08;;;;;;;31.00;36.27;100549.25;5077195;28;20251;-68
2021/07/20 11:08:51;;;;;;;3.67;2.22;;;;;;;30.68;36.46;100542.38;5075426;28;20697;-68
2021/07/20 11:11:26;;;;;;;3.38;2.30;;;;;;;30.63;35.76;100551.44;5077630;28;20283;-68
2021/07/20 11:13:56;;;;;;;3.33;2.10;;;;;;;30.71;36.24;100537.19;5080110;28;20218;-67
2021/07/20 11:16:26;;;;;;;2.65;1.98;;;;;;;30.46;36.20;100542.94;5078374;28;20247;-67
2021/07/20 11:18:57;;;;;;;3.92;1.70;;;;;;;30.42;35.68;100541.72;5076528;28;20221;-68
2021/07/20 11:21:28;;;;;;;3.17;1.88;;;;;;;30.20;36.19;100523.97;5091888;28;20327;-67
2021/07/20 11:23:59;;;;;;;2.53;1.90;;;;;;;30.14;36.09;100547.09;5087357;28;20236;-66
2021/07/20 11:26:31;;;;;;;5.25;2.22;;;;;;;29.86;36.54;100542.16;5086529;28;20621;-67
2021/07/20 11:29:00;;;;;;;6.10;2.13;;;;;;;30.06;37.08;100531.66;5076829;28;20200;-66
2021/07/20 11:31:33;;;;;;;3.22;1.60;;;;;;;30.32;35.62;100540.63;5086699;28;20279;-67
2021/07/20 11:34:08;;;;;;;4.82;1.80;;;;;;;29.83;36.25;100540.72;5078002;28;20865;-67
2021/07/20 11:36:40;;;;;;;3.95;2.08;;;;;;;29.80;36.27;100541.19;5078104;28;20196;-67
2021/07/20 11:39:16;;;;;;;4.45;2.03;;;;;;;29.82;36.10;100527.94;5087403;28;20216;-68
2021/07/20 11:41:56;;;;;;;5.53;1.92;;;;;;;30.04;36.20;100535.75;5082219;28;20245;-67
2021/07/20 11:44:39;;;;;;;4.40;2.00;;;;;;;30.07;37.02;100543.59;5089792;28;20597;-67
2021/07/20 11:47:13;;;;;;;6.10;1.77;;;;;;;29.80;36.85;100541.19;5084534;28;20629;-67
2021/07/20 11:49:47;;;;;;;4.03;1.83;;;;;;;29.92;37.04;100544.84;5079443;28;20603;-67
2021/07/20 11:52:27;;;;;;;3.10;1.83;;;;;;;29.77;36.83;100547.19;5085848;28;20274;-67
2021/07/20 11:55:06;;;;;;;4.85;1.90;;;;;;;29.78;37.75;100548.88;5076164;28;20250;-67
2021/07/20 11:58:27;;;;;;;4.10;1.70;;;;;;;29.93;37.35;100540.97;5079406;28;20725;-67